sensor_id;sensor_type;location;lat;lon;timestamp;pressure;altitude;pressure_sealevel;temperature;humidity
76358;BME280;65185;21.060;105.826;2023-02-28T00:00:25;102373.59;;;18.25;100.00
76358;BME280;65185;21.060;105.826;2023-02-28T00:02:52;102374.94;;;18.28;100.00
76358;BME280;65185;21.060;105.826;2023-02-28T00:05:20;102381.78;;;18.31;100.00
76358;BME280;65185;21.060;105.826;2023-02-28T00:07:49;102384.25;;;18.32;100.00
76358;BME280;65185;21.060;105.826;2023-02-28T00:10:19;102388.03;;;18.36;100.00
76358;BME280;65185;21.060;105.826;2023-02-28T00:12:53;102389.44;;;18.39;100.00
76358;BME280;65185;21.060;105.826;2023-02-28T00:15:23;102388.88;;;18.42;100.00
76358;BME280;65185;21.060;105.826;2023-02-28T00:17:50;102389.44;;;18.44;100.00
76358;BME280;65185;21.060;105.826;2023-02-28T00:20:18;102397.06;;;18.47;100.00
76358;BME280;65185;21.060;105.826;2023-02-28T00:22:47;102400.03;;;18.50;100.00
76358;BME280;65185;21.060;105.826;2023-02-28T00:25:17;102404.16;;;18.53;100.00
76358;BME280;65185;21.060;105.826;2023-02-28T00:27:45;102401.72;;;18.56;100.00
76358;BME280;65185;21.060;105.826;2023-02-28T00:30:18;102416.72;;;18.59;100.00
76358;BME280;65185;21.060;105.826;2023-02-28T00:32:45;102410.72;;;18.62;100.00
76358;BME280;65185;21.060;105.826;2023-02-28T00:35:12;102412.09;;;18.64;100.00
76358;BME280;65185;21.060;105.826;2023-02-28T00:37:39;102408.81;;;18.67;100.00
76358;BME280;65185;21.060;105.826;2023-02-28T00:40:06;102412.94;;;18.70;100.00
76358;BME280;65185;21.060;105.826;2023-02-28T00:42:34;102402.59;;;18.72;100.00
76358;BME280;65185;21.060;105.826;2023-02-28T00:45:01;102405.84;;;18.74;100.00
76358;BME280;65185;21.060;105.826;2023-02-28T00:47:30;102404.78;;;18.75;100.00
76358;BME280;65185;21.060;105.826;2023-02-28T00:49:57;102409.66;;;18.78;100.00
76358;BME280;65185;21.060;105.826;2023-02-28T00:52:23;102410.78;;;18.82;100.00
76358;BME280;65185;21.060;105.826;2023-02-28T00:54:50;102413.78;;;18.86;100.00
76358;BME280;65185;21.060;105.826;2023-02-28T00:57:16;102413.50;;;18.87;100.00
76358;BME280;65185;21.060;105.826;2023-02-28T00:59:43;102411.31;;;18.89;100.00
76358;BME280;65185;21.060;105.826;2023-02-28T01:02:10;102413.25;;;18.94;100.00
76358;BME280;65185;21.060;105.826;2023-02-28T01:04:36;102404.78;;;18.95;100.00
76358;BME280;65185;21.060;105.826;2023-02-28T01:07:03;102412.16;;;19.00;100.00
76358;BME280;65185;21.060;105.826;2023-02-28T01:09:30;102408.06;;;19.02;100.00
76358;BME280;65185;21.060;105.826;2023-02-28T01:11:56;102413.50;;;19.07;100.00
76358;BME280;65185;21.060;105.826;2023-02-28T01:14:23;102418.97;;;19.13;100.00
76358;BME280;65185;21.060;105.826;2023-02-28T01:16:49;102419.78;;;19.13;100.00
76358;BME280;65185;21.060;105.826;2023-02-28T01:19:18;102418.13;;;19.17;100.00
76358;BME280;65185;21.060;105.826;2023-02-28T01:21:45;102417.88;;;19.24;100.00
76358;BME280;65185;21.060;105.826;2023-02-28T01:24:12;102424.41;;;19.23;100.00
76358;BME280;65185;21.060;105.826;2023-02-28T01:26:38;102423.31;;;19.29;100.00
76358;BME280;65185;21.060;105.826;2023-02-28T01:29:05;102419.78;;;19.28;100.00
76358;BME280;65185;21.060;105.826;2023-02-28T01:31:31;102420.88;;;19.32;100.00
76358;BME280;65185;21.060;105.826;2023-02-28T01:33:58;102428.75;;;19.34;100.00
76358;BME280;65185;21.060;105.826;2023-02-28T01:36:25;102427.41;;;19.36;100.00
76358;BME280;65185;21.060;105.826;2023-02-28T01:38:53;102431.50;;;19.39;100.00
76358;BME280;65185;21.060;105.826;2023-02-28T01:41:25;102433.41;;;19.43;100.00
76358;BME280;65185;21.060;105.826;2023-02-28T01:46:32;102438.03;;;19.43;100.00
76358;BME280;65185;21.060;105.826;2023-02-28T01:49:13;102441.84;;;19.42;100.00
76358;BME280;65185;21.060;105.826;2023-02-28T01:54:14;102447.88;;;19.49;100.00
76358;BME280;65185;21.060;105.826;2023-02-28T01:57:06;102451.94;;;19.57;100.00
76358;BME280;65185;21.060;105.826;2023-02-28T01:59:40;102457.13;;;19.58;100.00
76358;BME280;65185;21.060;105.826;2023-02-28T02:02:22;102463.13;;;19.60;100.00
76358;BME280;65185;21.060;105.826;2023-02-28T02:05:10;102454.41;;;19.58;100.00
76358;BME280;65185;21.060;105.826;2023-02-28T02:07:40;102460.69;;;19.59;100.00
76358;BME280;65185;21.060;105.826;2023-02-28T02:10:15;102458.75;;;19.59;100.00
76358;BME280;65185;21.060;105.826;2023-02-28T02:35:14;102463.38;;;19.79;100.00
76358;BME280;65185;21.060;105.826;2023-02-28T02:44:17;102454.38;;;19.78;100.00
76358;BME280;65185;21.060;105.826;2023-02-28T02:46:26;102454.09;;;19.80;100.00
76358;BME280;65185;21.060;105.826;2023-02-28T02:48:56;102448.94;;;19.83;100.00
76358;BME280;65185;21.060;105.826;2023-02-28T02:51:26;102460.91;;;19.82;100.00
76358;BME280;65185;21.060;105.826;2023-02-28T02:56:44;102451.34;;;19.85;100.00
76358;BME280;65185;21.060;105.826;2023-02-28T02:59:17;102447.28;;;19.82;100.00
76358;BME280;65185;21.060;105.826;2023-02-28T03:01:54;102446.72;;;19.85;100.00
76358;BME280;65185;21.060;105.826;2023-02-28T03:04:24;102447.53;;;19.86;100.00
76358;BME280;65185;21.060;105.826;2023-02-28T03:06:51;102453.00;;;19.86;100.00
76358;BME280;65185;21.060;105.826;2023-02-28T03:09:22;102448.38;;;19.86;100.00
76358;BME280;65185;21.060;105.826;2023-02-28T03:11:49;102440.72;;;19.88;100.00
76358;BME280;65185;21.060;105.826;2023-02-28T03:22:32;102438.25;;;19.97;100.00
76358;BME280;65185;21.060;105.826;2023-02-28T03:31:15;102432.47;;;20.09;100.00
76358;BME280;65185;21.060;105.826;2023-02-28T03:33:51;102431.91;;;20.17;100.00
76358;BME280;65185;21.060;105.826;2023-02-28T03:36:30;102432.41;;;20.24;100.00
76358;BME280;65185;21.060;105.826;2023-02-28T03:39:02;102427.22;;;20.38;100.00
76358;BME280;65185;21.060;105.826;2023-02-28T03:41:43;102415.88;;;20.64;100.00
76358;BME280;65185;21.060;105.826;2023-02-28T03:44:22;102417.50;;;21.04;100.00
76358;BME280;65185;21.060;105.826;2023-02-28T03:47:02;102419.06;;;21.49;100.00
76358;BME280;65185;21.060;105.826;2023-02-28T03:49:40;102409.38;;;21.86;100.00
76358;BME280;65185;21.060;105.826;2023-02-28T03:52:21;102401.78;;;22.49;95.40
76358;BME280;65185;21.060;105.826;2023-02-28T03:54:56;102404.78;;;23.23;89.77
76358;BME280;65185;21.060;105.826;2023-02-28T03:57:38;102394.75;;;23.78;82.92
76358;BME280;65185;21.060;105.826;2023-02-28T04:00:16;102394.94;;;24.09;76.96
76358;BME280;65185;21.060;105.826;2023-02-28T04:02:45;102388.22;;;23.87;77.56
76358;BME280;65185;21.060;105.826;2023-02-28T04:05:20;102390.53;;;23.53;79.65
76358;BME280;65185;21.060;105.826;2023-02-28T04:07:46;102376.38;;;23.32;80.29
76358;BME280;65185;21.060;105.826;2023-02-28T04:10:15;102378.75;;;23.06;80.41
76358;BME280;65185;21.060;105.826;2023-02-28T04:12:42;102375.38;;;22.77;84.81
76358;BME280;65185;21.060;105.826;2023-02-28T04:15:09;102368.09;;;22.49;87.44
76358;BME280;65185;21.060;105.826;2023-02-28T04:17:36;102368.69;;;22.27;88.36
76358;BME280;65185;21.060;105.826;2023-02-28T04:20:04;102365.34;;;22.11;88.69
76358;BME280;65185;21.060;105.826;2023-02-28T04:22:35;102358.59;;;22.04;90.44
76358;BME280;65185;21.060;105.826;2023-02-28T04:25:03;102349.84;;;22.02;92.25
76358;BME280;65185;21.060;105.826;2023-02-28T04:27:31;102344.69;;;22.00;91.77
76358;BME280;65185;21.060;105.826;2023-02-28T04:29:57;102343.88;;;22.00;90.40
76358;BME280;65185;21.060;105.826;2023-02-28T04:32:24;102334.66;;;21.90;89.58
76358;BME280;65185;21.060;105.826;2023-02-28T04:34:51;102324.91;;;21.84;90.27
76358;BME280;65185;21.060;105.826;2023-02-28T04:37:17;102326.63;;;21.75;91.20
76358;BME280;65185;21.060;105.826;2023-02-28T04:39:44;102319.91;;;21.68;91.68
76358;BME280;65185;21.060;105.826;2023-02-28T04:42:12;102320.00;;;21.57;91.70
76358;BME280;65185;21.060;105.826;2023-02-28T04:44:39;102308.03;;;21.53;92.05
76358;BME280;65185;21.060;105.826;2023-02-28T04:47:05;102303.97;;;21.51;91.92
76358;BME280;65185;21.060;105.826;2023-02-28T04:49:33;102302.34;;;21.50;91.57
76358;BME280;65185;21.060;105.826;2023-02-28T04:51:59;102298.66;;;21.60;91.63
76358;BME280;65185;21.060;105.826;2023-02-28T04:54:26;102287.72;;;21.60;91.55
76358;BME280;65185;21.060;105.826;2023-02-28T04:56:54;102278.19;;;21.57;91.13
76358;BME280;65185;21.060;105.826;2023-02-28T04:59:20;102277.41;;;21.56;91.45
76358;BME280;65185;21.060;105.826;2023-02-28T05:01:48;102268.25;;;21.66;89.48
76358;BME280;65185;21.060;105.826;2023-02-28T05:04:15;102269.50;;;21.74;88.74
76358;BME280;65185;21.060;105.826;2023-02-28T05:06:42;102264.56;;;21.76;90.47
76358;BME280;65185;21.060;105.826;2023-02-28T05:09:09;102265.31;;;21.81;90.16
76358;BME280;65185;21.060;105.826;2023-02-28T05:11:39;102253.25;;;21.82;89.83
76358;BME280;65185;21.060;105.826;2023-02-28T05:14:10;102256.81;;;21.83;89.83
76358;BME280;65185;21.060;105.826;2023-02-28T05:16:37;102250.00;;;21.80;89.47
76358;BME280;65185;21.060;105.826;2023-02-28T05:19:04;102248.59;;;21.83;90.25
76358;BME280;65185;21.060;105.826;2023-02-28T05:21:36;102243.56;;;21.95;87.73
76358;BME280;65185;21.060;105.826;2023-02-28T05:24:07;102229.19;;;22.03;87.28
76358;BME280;65185;21.060;105.826;2023-02-28T05:26:38;102219.28;;;22.07;86.96
76358;BME280;65185;21.060;105.826;2023-02-28T05:29:05;102212.03;;;22.16;82.94
76358;BME280;65185;21.060;105.826;2023-02-28T05:31:32;102209.13;;;22.08;84.15
76358;BME280;65185;21.060;105.826;2023-02-28T05:34:00;102204.47;;;22.08;85.28
76358;BME280;65185;21.060;105.826;2023-02-28T05:36:26;102205.91;;;22.06;86.68
76358;BME280;65185;21.060;105.826;2023-02-28T05:38:53;102205.91;;;22.06;86.55
76358;BME280;65185;21.060;105.826;2023-02-28T05:41:20;102196.88;;;22.05;86.45
76358;BME280;65185;21.060;105.826;2023-02-28T05:43:51;102192.16;;;22.11;87.42
76358;BME280;65185;21.060;105.826;2023-02-28T05:46:18;102182.66;;;22.22;86.94
76358;BME280;65185;21.060;105.826;2023-02-28T05:48:47;102181.94;;;22.16;83.68
76358;BME280;65185;21.060;105.826;2023-02-28T05:51:13;102174.09;;;22.10;84.41
76358;BME280;65185;21.060;105.826;2023-02-28T05:53:40;102171.06;;;22.11;84.60
76358;BME280;65185;21.060;105.826;2023-02-28T05:56:07;102167.91;;;22.04;84.75
76358;BME280;65185;21.060;105.826;2023-02-28T05:58:33;102160.78;;;22.03;82.46
76358;BME280;65185;21.060;105.826;2023-02-28T06:01:19;102148.31;;;21.97;83.97
76358;BME280;65185;21.060;105.826;2023-02-28T06:03:46;102146.63;;;22.01;85.29
76358;BME280;65185;21.060;105.826;2023-02-28T06:06:12;102137.34;;;21.97;83.99
76358;BME280;65185;21.060;105.826;2023-02-28T06:08:39;102137.13;;;21.93;84.57
76358;BME280;65185;21.060;105.826;2023-02-28T06:11:05;102120.50;;;21.90;85.54
76358;BME280;65185;21.060;105.826;2023-02-28T06:13:32;102112.78;;;21.92;85.23
76358;BME280;65185;21.060;105.826;2023-02-28T06:16:01;102113.84;;;21.96;84.51
76358;BME280;65185;21.060;105.826;2023-02-28T06:18:27;102100.50;;;21.94;84.14
76358;BME280;65185;21.060;105.826;2023-02-28T06:20:54;102098.81;;;21.93;85.09
76358;BME280;65185;21.060;105.826;2023-02-28T06:23:21;102095.22;;;21.98;90.32
76358;BME280;65185;21.060;105.826;2023-02-28T06:25:48;102091.91;;;22.01;90.71
76358;BME280;65185;21.060;105.826;2023-02-28T06:28:15;102082.66;;;21.97;91.45
76358;BME280;65185;21.060;105.826;2023-02-28T06:30:42;102081.03;;;21.96;92.84
76358;BME280;65185;21.060;105.826;2023-02-28T06:33:08;102076.06;;;21.98;91.86
76358;BME280;65185;21.060;105.826;2023-02-28T06:35:35;102064.97;;;21.89;92.50
76358;BME280;65185;21.060;105.826;2023-02-28T06:38:01;102066.81;;;21.94;92.82
76358;BME280;65185;21.060;105.826;2023-02-28T06:40:28;102058.69;;;21.89;94.35
76358;BME280;65185;21.060;105.826;2023-02-28T06:42:59;102049.38;;;21.90;95.32
76358;BME280;65185;21.060;105.826;2023-02-28T06:45:26;102046.50;;;22.00;96.92
76358;BME280;65185;21.060;105.826;2023-02-28T06:47:53;102037.09;;;22.06;92.79
76358;BME280;65185;21.060;105.826;2023-02-28T06:50:19;102044.25;;;22.02;91.38
76358;BME280;65185;21.060;105.826;2023-02-28T06:52:46;102033.75;;;22.09;90.26
76358;BME280;65185;21.060;105.826;2023-02-28T06:55:13;102031.41;;;22.03;92.80
76358;BME280;65185;21.060;105.826;2023-02-28T06:57:39;102018.84;;;22.15;93.01
76358;BME280;65185;21.060;105.826;2023-02-28T07:00:10;102020.97;;;22.05;95.06
76358;BME280;65185;21.060;105.826;2023-02-28T07:02:37;102010.41;;;21.98;94.92
76358;BME280;65185;21.060;105.826;2023-02-28T07:05:04;102001.34;;;21.84;93.72
76358;BME280;65185;21.060;105.826;2023-02-28T07:07:31;101999.44;;;21.84;93.39
76358;BME280;65185;21.060;105.826;2023-02-28T07:09:58;101996.19;;;21.82;94.72
76358;BME280;65185;21.060;105.826;2023-02-28T07:12:24;101988.78;;;21.83;96.04
76358;BME280;65185;21.060;105.826;2023-02-28T07:14:51;101985.16;;;21.87;94.84
76358;BME280;65185;21.060;105.826;2023-02-28T07:17:18;101980.50;;;21.88;99.03
76358;BME280;65185;21.060;105.826;2023-02-28T07:19:44;101970.13;;;21.85;96.61
76358;BME280;65185;21.060;105.826;2023-02-28T07:22:11;101972.38;;;21.83;95.65
76358;BME280;65185;21.060;105.826;2023-02-28T07:24:37;101966.63;;;21.84;95.04
76358;BME280;65185;21.060;105.826;2023-02-28T07:27:04;101971.47;;;21.87;94.49
76358;BME280;65185;21.060;105.826;2023-02-28T07:29:34;101953.44;;;21.86;95.20
76358;BME280;65185;21.060;105.826;2023-02-28T07:32:02;101956.13;;;22.05;94.33
76358;BME280;65185;21.060;105.826;2023-02-28T07:34:28;101953.16;;;22.02;96.10
76358;BME280;65185;21.060;105.826;2023-02-28T07:36:55;101941.00;;;21.94;95.61
76358;BME280;65185;21.060;105.826;2023-02-28T07:39:25;101937.19;;;21.95;91.33
76358;BME280;65185;21.060;105.826;2023-02-28T07:41:52;101935.81;;;21.92;92.72
76358;BME280;65185;21.060;105.826;2023-02-28T07:44:19;101927.84;;;21.96;94.24
76358;BME280;65185;21.060;105.826;2023-02-28T07:46:46;101931.91;;;21.98;93.72
76358;BME280;65185;21.060;105.826;2023-02-28T07:49:13;101929.06;;;22.04;95.62
76358;BME280;65185;21.060;105.826;2023-02-28T07:51:40;101923.06;;;22.02;95.61
76358;BME280;65185;21.060;105.826;2023-02-28T07:54:07;101925.63;;;21.98;96.66
76358;BME280;65185;21.060;105.826;2023-02-28T07:56:33;101925.03;;;22.01;94.36
76358;BME280;65185;21.060;105.826;2023-02-28T07:59:00;101919.66;;;22.10;92.07
76358;BME280;65185;21.060;105.826;2023-02-28T08:01:27;101919.72;;;22.18;90.43
76358;BME280;65185;21.060;105.826;2023-02-28T08:03:54;101912.34;;;22.19;91.06
76358;BME280;65185;21.060;105.826;2023-02-28T08:06:24;101914.47;;;22.08;94.43
76358;BME280;65185;21.060;105.826;2023-02-28T08:08:53;101907.38;;;22.07;91.67
76358;BME280;65185;21.060;105.826;2023-02-28T08:11:19;101912.13;;;22.15;89.18
76358;BME280;65185;21.060;105.826;2023-02-28T08:13:46;101906.66;;;22.15;85.88
76358;BME280;65185;21.060;105.826;2023-02-28T08:16:13;101908.09;;;22.26;87.85
76358;BME280;65185;21.060;105.826;2023-02-28T08:18:49;101899.97;;;22.21;84.46
76358;BME280;65185;21.060;105.826;2023-02-28T08:21:16;101904.63;;;22.21;85.27
76358;BME280;65185;21.060;105.826;2023-02-28T08:23:42;101893.09;;;22.10;91.01
76358;BME280;65185;21.060;105.826;2023-02-28T08:26:09;101899.25;;;22.02;95.14
76358;BME280;65185;21.060;105.826;2023-02-28T08:28:36;101883.66;;;22.16;91.85
76358;BME280;65185;21.060;105.826;2023-02-28T08:31:08;101889.66;;;22.05;93.60
76358;BME280;65185;21.060;105.826;2023-02-28T08:33:35;101898.78;;;22.00;96.52
76358;BME280;65185;21.060;105.826;2023-02-28T08:36:02;101893.59;;;21.98;99.03
76358;BME280;65185;21.060;105.826;2023-02-28T08:38:29;101890.06;;;21.98;98.44
76358;BME280;65185;21.060;105.826;2023-02-28T08:41:00;101887.63;;;21.96;95.23
76358;BME280;65185;21.060;105.826;2023-02-28T08:43:28;101888.31;;;21.88;97.20
76358;BME280;65185;21.060;105.826;2023-02-28T08:45:55;101891.03;;;21.88;100.00
76358;BME280;65185;21.060;105.826;2023-02-28T08:48:23;101886.50;;;21.84;100.00
76358;BME280;65185;21.060;105.826;2023-02-28T08:51:01;101887.38;;;21.79;100.00
76358;BME280;65185;21.060;105.826;2023-02-28T08:53:28;101880.59;;;21.77;100.00
76358;BME280;65185;21.060;105.826;2023-02-28T08:56:03;101882.81;;;21.75;100.00
76358;BME280;65185;21.060;105.826;2023-02-28T08:58:30;101885.56;;;21.75;100.00
76358;BME280;65185;21.060;105.826;2023-02-28T09:00:57;101882.53;;;21.76;100.00
76358;BME280;65185;21.060;105.826;2023-02-28T09:03:24;101889.22;;;21.84;100.00
76358;BME280;65185;21.060;105.826;2023-02-28T09:05:57;101880.78;;;21.80;100.00
76358;BME280;65185;21.060;105.826;2023-02-28T09:08:25;101878.16;;;21.75;100.00
76358;BME280;65185;21.060;105.826;2023-02-28T09:10:53;101880.69;;;21.72;100.00
76358;BME280;65185;21.060;105.826;2023-02-28T09:13:21;101885.66;;;21.70;100.00
76358;BME280;65185;21.060;105.826;2023-02-28T09:15:48;101890.91;;;21.80;100.00
76358;BME280;65185;21.060;105.826;2023-02-28T09:18:15;101878.78;;;21.86;100.00
76358;BME280;65185;21.060;105.826;2023-02-28T09:20:45;101884.44;;;21.76;100.00
76358;BME280;65185;21.060;105.826;2023-02-28T09:23:12;101887.78;;;21.73;100.00
76358;BME280;65185;21.060;105.826;2023-02-28T09:25:46;101888.38;;;21.70;100.00
76358;BME280;65185;21.060;105.826;2023-02-28T09:28:13;101891.22;;;21.65;100.00
76358;BME280;65185;21.060;105.826;2023-02-28T09:30:48;101896.16;;;21.63;100.00
76358;BME280;65185;21.060;105.826;2023-02-28T09:33:16;101894.25;;;21.63;100.00
76358;BME280;65185;21.060;105.826;2023-02-28T09:35:47;101896.78;;;21.60;100.00
76358;BME280;65185;21.060;105.826;2023-02-28T09:38:14;101896.97;;;21.63;100.00
76358;BME280;65185;21.060;105.826;2023-02-28T09:40:51;101892.31;;;21.64;100.00
76358;BME280;65185;21.060;105.826;2023-02-28T09:43:23;101894.97;;;21.69;100.00
76358;BME280;65185;21.060;105.826;2023-02-28T09:48:45;101896.97;;;21.63;100.00
76358;BME280;65185;21.060;105.826;2023-02-28T09:54:15;101890.69;;;21.49;100.00
76358;BME280;65185;21.060;105.826;2023-02-28T09:57:13;101899.19;;;21.47;100.00
76358;BME280;65185;21.060;105.826;2023-02-28T10:08:03;101890.06;;;21.38;100.00
76358;BME280;65185;21.060;105.826;2023-02-28T10:10:48;101899.19;;;21.47;100.00
76358;BME280;65185;21.060;105.826;2023-02-28T10:13:50;101898.75;;;21.40;100.00
76358;BME280;65185;21.060;105.826;2023-02-28T10:16:24;101891.16;;;21.37;100.00
76358;BME280;65185;21.060;105.826;2023-02-28T10:19:20;101891.47;;;21.36;100.00
76358;BME280;65185;21.060;105.826;2023-02-28T10:21:59;101889.03;;;21.34;100.00
76358;BME280;65185;21.060;105.826;2023-02-28T10:24:37;101895.91;;;21.32;100.00
76358;BME280;65185;21.060;105.826;2023-02-28T10:27:15;101895.63;;;21.33;100.00
76358;BME280;65185;21.060;105.826;2023-02-28T10:29:51;101888.97;;;21.39;100.00
76358;BME280;65185;21.060;105.826;2023-02-28T10:32:25;101894.50;;;21.34;100.00
76358;BME280;65185;21.060;105.826;2023-02-28T10:37:34;101901.66;;;21.30;100.00
76358;BME280;65185;21.060;105.826;2023-02-28T10:40:26;101897.09;;;21.26;100.00
76358;BME280;65185;21.060;105.826;2023-02-28T10:43:00;101894.28;;;21.31;100.00
76358;BME280;65185;21.060;105.826;2023-02-28T10:45:29;101902.78;;;21.29;100.00
76358;BME280;65185;21.060;105.826;2023-02-28T10:48:00;101906.63;;;21.28;100.00
76358;BME280;65185;21.060;105.826;2023-02-28T10:56:00;101909.50;;;21.18;100.00
76358;BME280;65185;21.060;105.826;2023-02-28T10:58:57;101910.03;;;21.20;100.00
76358;BME280;65185;21.060;105.826;2023-02-28T11:04:02;101913.28;;;21.22;100.00
76358;BME280;65185;21.060;105.826;2023-02-28T11:06:31;101914.47;;;21.16;100.00
76358;BME280;65185;21.060;105.826;2023-02-28T11:09:33;101910.56;;;21.22;100.00
76358;BME280;65185;21.060;105.826;2023-02-28T11:11:52;101911.75;;;21.16;100.00
76358;BME280;65185;21.060;105.826;2023-02-28T11:14:22;101911.38;;;21.23;100.00
76358;BME280;65185;21.060;105.826;2023-02-28T11:16:51;101905.81;;;21.09;100.00
76358;BME280;65185;21.060;105.826;2023-02-28T11:19:25;101910.53;;;21.03;100.00
76358;BME280;65185;21.060;105.826;2023-02-28T11:21:58;101907.59;;;21.00;100.00
76358;BME280;65185;21.060;105.826;2023-02-28T11:24:32;101909.09;;;20.92;100.00
76358;BME280;65185;21.060;105.826;2023-02-28T11:27:00;101905.63;;;20.87;100.00
76358;BME280;65185;21.060;105.826;2023-02-28T11:29:32;101909.44;;;21.04;100.00
76358;BME280;65185;21.060;105.826;2023-02-28T11:32:19;101912.84;;;21.15;100.00
76358;BME280;65185;21.060;105.826;2023-02-28T11:34:47;101925.75;;;21.09;100.00
76358;BME280;65185;21.060;105.826;2023-02-28T11:37:27;101922.44;;;20.94;100.00
76358;BME280;65185;21.060;105.826;2023-02-28T11:39:54;101912.72;;;20.88;100.00
76358;BME280;65185;21.060;105.826;2023-02-28T11:44:55;101920.69;;;20.84;100.00
76358;BME280;65185;21.060;105.826;2023-02-28T12:04:58;101940.00;;;20.69;100.00
76358;BME280;65185;21.060;105.826;2023-02-28T12:10:37;101953.94;;;20.67;100.00
76358;BME280;65185;21.060;105.826;2023-02-28T12:21:53;101960.06;;;20.59;100.00
76358;BME280;65185;21.060;105.826;2023-02-28T12:27:12;101960.38;;;20.77;100.00
76358;BME280;65185;21.060;105.826;2023-02-28T12:37:36;101976.84;;;20.71;100.00
76358;BME280;65185;21.060;105.826;2023-02-28T12:40:20;101984.56;;;20.64;100.00
76358;BME280;65185;21.060;105.826;2023-02-28T12:43:02;101986.75;;;20.62;100.00
76358;BME280;65185;21.060;105.826;2023-02-28T12:45:57;101989.50;;;20.62;100.00
76358;BME280;65185;21.060;105.826;2023-02-28T12:48:42;102001.53;;;20.61;100.00
76358;BME280;65185;21.060;105.826;2023-02-28T12:51:09;102001.22;;;20.63;100.00
76358;BME280;65185;21.060;105.826;2023-02-28T12:58:41;102007.00;;;20.61;100.00
76358;BME280;65185;21.060;105.826;2023-02-28T13:05:22;102023.47;;;20.51;100.00
76358;BME280;65185;21.060;105.826;2023-02-28T13:10:22;102030.09;;;20.45;100.00
76358;BME280;65185;21.060;105.826;2023-02-28T13:12:51;102032.03;;;20.45;100.00
76358;BME280;65185;21.060;105.826;2023-02-28T13:15:25;102030.06;;;20.50;100.00
76358;BME280;65185;21.060;105.826;2023-02-28T13:17:57;102036.91;;;20.48;100.00
76358;BME280;65185;21.060;105.826;2023-02-28T13:20:29;102042.41;;;20.43;100.00
76358;BME280;65185;21.060;105.826;2023-02-28T13:22:57;102035.31;;;20.42;100.00
76358;BME280;65185;21.060;105.826;2023-02-28T13:28:13;102040.56;;;20.38;100.00
76358;BME280;65185;21.060;105.826;2023-02-28T13:31:05;102041.06;;;20.40;100.00
76358;BME280;65185;21.060;105.826;2023-02-28T13:56:50;102057.03;;;20.23;100.00
76358;BME280;65185;21.060;105.826;2023-02-28T13:58:59;102061.16;;;20.20;100.00
76358;BME280;65185;21.060;105.826;2023-02-28T14:07:25;102061.53;;;20.09;100.00
76358;BME280;65185;21.060;105.826;2023-02-28T14:10:05;102060.78;;;20.03;100.00
76358;BME280;65185;21.060;105.826;2023-02-28T14:12:56;102070.06;;;20.02;100.00
76358;BME280;65185;21.060;105.826;2023-02-28T14:21:20;102080.69;;;20.04;100.00
76358;BME280;65185;21.060;105.826;2023-02-28T14:29:38;102073.47;;;19.89;100.00
76358;BME280;65185;21.060;105.826;2023-02-28T14:38:31;102087.41;;;19.82;100.00
76358;BME280;65185;21.060;105.826;2023-02-28T14:41:00;102089.59;;;19.80;100.00
76358;BME280;65185;21.060;105.826;2023-02-28T14:43:32;102084.16;;;19.80;100.00
76358;BME280;65185;21.060;105.826;2023-02-28T14:46:02;102090.19;;;19.77;100.00
76358;BME280;65185;21.060;105.826;2023-02-28T14:48:31;102089.63;;;19.75;100.00
76358;BME280;65185;21.060;105.826;2023-02-28T14:51:00;102089.38;;;19.77;100.00
76358;BME280;65185;21.060;105.826;2023-02-28T14:53:30;102089.28;;;19.87;100.00
76358;BME280;65185;21.060;105.826;2023-02-28T14:56:02;102087.97;;;19.79;100.00
76358;BME280;65185;21.060;105.826;2023-02-28T14:58:31;102089.91;;;19.74;100.00
76358;BME280;65185;21.060;105.826;2023-02-28T15:01:01;102092.94;;;19.72;100.00
76358;BME280;65185;21.060;105.826;2023-02-28T15:06:01;102096.47;;;19.73;100.00
76358;BME280;65185;21.060;105.826;2023-02-28T15:08:29;102099.50;;;19.71;100.00
76358;BME280;65185;21.060;105.826;2023-02-28T15:11:18;102104.63;;;19.73;100.00
76358;BME280;65185;21.060;105.826;2023-02-28T15:13:50;102110.91;;;19.73;100.00
76358;BME280;65185;21.060;105.826;2023-02-28T15:16:51;102114.69;;;19.82;100.00
76358;BME280;65185;21.060;105.826;2023-02-28T15:19:23;102115.81;;;19.76;100.00
76358;BME280;65185;21.060;105.826;2023-02-28T15:22:04;102115.53;;;19.73;100.00
76358;BME280;65185;21.060;105.826;2023-02-28T15:24:47;102118.00;;;19.74;100.00
76358;BME280;65185;21.060;105.826;2023-02-28T15:27:17;102114.75;;;19.72;100.00
76358;BME280;65185;21.060;105.826;2023-02-28T15:29:53;102109.84;;;19.69;100.00
76358;BME280;65185;21.060;105.826;2023-02-28T15:32:30;102112.56;;;19.69;100.00
76358;BME280;65185;21.060;105.826;2023-02-28T15:34:58;102116.69;;;19.67;100.00
76358;BME280;65185;21.060;105.826;2023-02-28T15:37:46;102122.44;;;19.65;100.00
76358;BME280;65185;21.060;105.826;2023-02-28T15:42:59;102120.19;;;19.72;100.00
76358;BME280;65185;21.060;105.826;2023-02-28T15:45:38;102118.00;;;19.74;100.00